Time;durP1;ratioP1;P1;durP2;ratioP2;P2;SDS_P1;SDS_P2;PMS_P1;PMS_P2;Temp;Humidity;BMP_temperature;BMP_pressure;BME280_temperature;BME280_humidity;BME280_pressure;Samples;Min_cycle;Max_cycle;Signal;HPM_P1;HPM_P2
2022/02/03 00:01:39;;;;;;;;;;;3.70;81.40;;;;;;5040406;28;20060;-73
2022/02/03 00:04:13;;;;;;;6.75;2.67;;;3.60;81.40;;;;;;5042604;28;19936;-75
2022/02/03 00:06:49;;;;;;;6.07;3.30;;;3.60;81.50;;;;;;5042162;28;20060;-72
2022/02/03 00:09:49;;;;;;;8.63;3.30;;;3.70;81.50;;;;;;5041508;28;20501;-73
2022/02/03 00:26:31;;;;;;;10.23;3.55;;;3.70;81.80;;;;;;5040907;28;20158;-73
2022/02/03 00:29:02;;;;;;;10.68;4.20;;;3.70;81.80;;;;;;5041436;28;20114;-72
2022/02/03 00:31:39;;;;;;;6.53;3.10;;;3.70;81.80;;;;;;5039191;28;20051;-73
2022/02/03 00:34:12;;;;;;;11.77;4.35;;;3.70;81.70;;;;;;5037553;28;20155;-75
2022/02/03 00:37:06;;;;;;;8.80;3.22;;;3.70;81.70;;;;;;5038139;28;20044;-76
2022/02/03 00:50:42;;;;;;;9.45;3.17;;;3.70;81.90;;;;;;5039467;28;20044;-74
2022/02/03 00:53:13;;;;;;;12.23;3.15;;;3.80;82.10;;;;;;5033440;28;20479;-74
2022/02/03 00:55:42;;;;;;;;;;;3.80;82.10;;;;;;5036429;28;20059;-74
2022/02/03 00:58:13;;;;;;;6.80;2.67;;;3.70;82.00;;;;;;5042774;28;19924;-74
2022/02/03 01:00:42;;;;;;;;;;;3.80;82.10;;;;;;5054287;28;20048;-72
2022/02/03 01:03:14;;;;;;;9.55;3.10;;;3.80;82.10;;;;;;5043682;28;19929;-73
2022/02/03 01:05:43;;;;;;;5.90;2.65;;;3.80;82.20;;;;;;5041360;28;20374;-73
2022/02/03 01:08:18;;;;;;;9.48;2.75;;;3.80;82.30;;;;;;5040846;28;20096;-73
2022/02/03 01:10:50;;;;;;;12.07;3.03;;;3.80;82.40;;;;;;5041625;28;20048;-75
2022/02/03 01:13:32;;;;;;;7.30;3.20;;;3.80;82.40;;;;;;5036282;28;20136;-75
2022/02/03 01:16:07;;;;;;;6.28;3.03;;;3.80;82.40;;;;;;5037120;28;20049;-75
2022/02/03 01:21:35;;;;;;;9.25;2.97;;;3.80;82.60;;;;;;5025036;28;20056;-74
2022/02/03 01:36:50;;;;;;;9.43;3.03;;;3.90;82.70;;;;;;5042085;28;20579;-77
2022/02/03 01:43:40;;;;;;;9.30;3.25;;;3.90;82.70;;;;;;5041105;28;20063;-74
2022/02/03 01:46:12;;;;;;;8.82;3.50;;;3.90;82.70;;;;;;5043087;28;20481;-74
2022/02/03 01:49:04;;;;;;;9.32;3.05;;;3.90;82.70;;;;;;5040645;28;20049;-75
2022/02/03 01:51:42;;;;;;;8.93;3.13;;;3.90;82.70;;;;;;5040695;28;20609;-73
2022/02/03 01:54:09;;;;;;;13.02;2.83;;;3.90;82.70;;;;;;5041583;28;20056;-75
2022/02/03 01:56:39;;;;;;;6.03;3.05;;;3.90;82.60;;;;;;5041618;28;20049;-75
2022/02/03 01:59:20;;;;;;;9.05;3.08;;;3.90;82.70;;;;;;5041109;28;20132;-76
2022/02/03 02:01:50;;;;;;;8.48;2.58;;;3.90;82.70;;;;;;5038983;28;20494;-75
2022/02/03 02:04:35;;;;;;;9.48;3.58;;;3.90;82.70;;;;;;5034581;28;20519;-74
2022/02/03 02:07:20;;;;;;;10.68;3.95;;;3.90;82.90;;;;;;5036935;28;20041;-77
2022/02/03 02:10:12;;;;;;;7.65;3.05;;;3.90;82.90;;;;;;5037496;28;20056;-73
2022/02/03 02:12:55;;;;;;;9.20;2.95;;;3.90;82.90;;;;;;5035931;28;20313;-73
2022/02/03 02:16:00;;;;;;;8.10;3.20;;;3.90;83.00;;;;;;3632027;28;10020728;-74
2022/02/03 02:38:16;;;;;;;8.18;2.80;;;3.90;83.00;;;;;;5030682;28;20122;-73
2022/02/03 02:41:33;;;;;;;12.75;2.80;;;3.90;83.10;;;;;;5034279;28;20679;-75
2022/02/03 02:43:55;;;;;;;13.35;3.72;;;3.90;83.30;;;;;;5034898;28;20056;-75
2022/02/03 02:46:27;;;;;;;6.15;3.15;;;3.90;83.30;;;;;;5031893;28;20056;-74
2022/02/03 02:49:11;;;;;;;8.80;2.90;;;3.90;83.40;;;;;;5021745;28;20081;-73
2022/02/03 02:51:48;;;;;;;11.80;4.10;;;3.90;83.40;;;;;;5037636;28;20056;-74
2022/02/03 02:54:40;;;;;;;5.80;3.22;;;3.90;83.50;;;;;;5033459;28;20110;-74
2022/02/03 02:57:32;;;;;;;4.85;2.53;;;3.90;83.50;;;;;;5035835;28;20057;-73
2022/02/03 03:31:13;;;;;;;7.10;3.25;;;4.00;83.50;;;;;;5037650;28;20503;-73
2022/02/03 03:33:53;;;;;;;8.30;3.10;;;4.00;83.50;;;;;;5032885;28;20565;-72
2022/02/03 03:36:21;;;;;;;7.80;3.83;;;4.10;83.60;;;;;;5036156;28;20049;-74
2022/02/03 03:38:50;;;;;;;6.60;3.25;;;4.00;83.60;;;;;;5036590;28;20046;-76
2022/02/03 03:41:20;;;;;;;7.32;2.83;;;4.10;83.60;;;;;;5035344;28;20061;-72
2022/02/03 03:44:00;;;;;;;8.75;2.75;;;4.10;83.60;;;;;;5038353;28;20049;-76
2022/02/03 03:46:34;;;;;;;4.88;2.60;;;4.10;83.60;;;;;;5035723;28;20049;-74
2022/02/03 03:49:06;;;;;;;10.43;2.75;;;4.20;83.60;;;;;;5020580;28;20505;-74
2022/02/03 03:51:46;;;;;;;8.90;3.05;;;4.10;83.70;;;;;;5035452;28;20451;-74
2022/02/03 03:54:23;;;;;;;6.65;2.80;;;4.10;83.70;;;;;;5033421;28;20278;-74
2022/02/03 03:56:58;;;;;;;10.73;3.63;;;4.20;83.70;;;;;;5029102;28;20572;-75
2022/02/03 04:34:31;;;;;;;5.78;2.83;;;4.20;84.40;;;;;;5017863;28;20446;-76
2022/02/03 04:40:21;;;;;;;5.82;3.28;;;4.20;84.50;;;;;;5033382;28;20052;-74
2022/02/03 04:50:56;;;;;;;7.35;2.95;;;4.20;84.60;;;;;;5027321;28;20053;-73
2022/02/03 05:02:17;;;;;;;7.00;3.25;;;4.30;84.50;;;;;;4977783;28;20046;-76
2022/02/03 05:05:08;;;;;;;8.35;2.75;;;4.30;84.50;;;;;;5038376;28;20399;-74
2022/02/03 05:08:20;;;;;;;13.32;3.53;;;4.40;84.60;;;;;;5038163;28;20304;-75
2022/02/03 05:11:14;;;;;;;5.93;2.90;;;4.30;84.60;;;;;;5025375;28;20688;-72
2022/02/03 05:14:23;;;;;;;5.85;2.85;;;4.30;84.60;;;;;;5036272;28;20057;-74
2022/02/03 05:17:17;;;;;;;11.82;3.90;;;4.30;84.70;;;;;;5040190;28;20051;-74
2022/02/03 05:20:19;;;;;;;7.05;2.67;;;4.40;84.80;;;;;;5042155;28;20539;-73
2022/02/03 05:23:51;;;;;;;7.40;3.28;;;4.30;84.80;;;;;;5041802;28;20056;-72
2022/02/03 05:26:39;;;;;;;8.25;3.33;;;4.40;84.90;;;;;;5040356;28;20064;-74
2022/02/03 05:32:45;;;;;;;7.53;3.38;;;4.40;84.90;;;;;;5041143;28;20049;-74
2022/02/03 05:47:20;;;;;;;;;;;4.50;84.70;;;;;;5040097;28;20052;-75
2022/02/03 05:54:31;;;;;;;10.38;3.60;;;4.50;84.80;;;;;;4968345;28;20779;-73
2022/02/03 06:07:17;;;;;;;7.10;2.92;;;4.50;84.80;;;;;;5039065;28;20048;-72
2022/02/03 06:15:32;;;;;;;5.75;2.70;;;4.60;84.70;;;;;;2440754;28;10024432;-74
2022/02/03 06:23:49;;;;;;;;;;;4.60;85.00;;;;;;5030657;28;20087;-74
2022/02/03 06:29:03;;;;;;;7.63;2.45;;;4.60;85.10;;;;;;5038348;28;20052;-72
2022/02/03 06:31:30;;;;;;;7.97;3.35;;;4.60;85.10;;;;;;5032522;28;20463;-73
2022/02/03 06:33:58;;;;;;;5.90;2.42;;;4.50;85.10;;;;;;5034358;28;20569;-73
2022/02/03 06:36:26;;;;;;;5.13;2.85;;;4.60;85.10;;;;;;5032565;28;20041;-73
2022/02/03 06:38:53;;;;;;;5.03;2.50;;;4.60;85.00;;;;;;5017094;28;20398;-73
2022/02/03 06:41:20;;;;;;;7.28;3.53;;;4.60;85.00;;;;;;5035849;28;20060;-72
2022/02/03 06:43:47;;;;;;;7.63;3.05;;;4.60;85.00;;;;;;5041506;28;20084;-71
2022/02/03 06:46:14;;;;;;;7.43;2.28;;;4.60;85.10;;;;;;5041690;28;20150;-74
2022/02/03 06:48:47;;;;;;;7.50;3.40;;;4.70;85.10;;;;;;5037202;28;21343;-72
2022/02/03 06:51:22;;;;;;;6.72;3.13;;;4.70;85.10;;;;;;5039260;28;20045;-73
2022/02/03 06:53:54;;;;;;;7.53;2.80;;;4.60;85.20;;;;;;5037023;28;20114;-73
2022/02/03 06:56:32;;;;;;;6.50;2.88;;;4.70;85.20;;;;;;5034395;28;20057;-73
2022/02/03 06:59:01;;;;;;;9.07;2.78;;;4.70;85.30;;;;;;5040695;28;20176;-77
2022/02/03 07:01:34;;;;;;;7.38;3.58;;;4.60;85.30;;;;;;5032996;28;20116;-74
2022/02/03 07:04:04;;;;;;;7.90;3.03;;;4.60;85.40;;;;;;5031439;28;20052;-73
2022/02/03 07:06:33;;;;;;;5.18;2.88;;;4.60;85.40;;;;;;5030522;28;20495;-74
2022/02/03 07:09:06;;;;;;;9.13;3.15;;;4.60;85.40;;;;;;5039445;28;20486;-74
2022/02/03 07:11:33;;;;;;;9.45;3.47;;;4.70;85.40;;;;;;5025368;28;20056;-72
2022/02/03 07:14:00;;;;;;;8.63;2.55;;;4.70;85.40;;;;;;5035553;28;20684;-72
2022/02/03 07:16:34;;;;;;;4.28;2.55;;;4.70;85.40;;;;;;5031734;28;20621;-74
2022/02/03 07:19:01;;;;;;;4.68;2.45;;;4.70;85.40;;;;;;5031699;28;20064;-73
2022/02/03 07:21:28;;;;;;;6.47;2.55;;;4.70;85.40;;;;;;5034228;28;20155;-73
2022/02/03 07:23:57;;;;;;;10.18;3.03;;;4.70;85.40;;;;;;5039821;28;20037;-72
2022/02/03 07:26:23;;;;;;;5.65;2.47;;;4.70;85.50;;;;;;5030923;28;20083;-75
2022/02/03 07:28:51;;;;;;;7.85;2.72;;;4.70;85.50;;;;;;5038210;28;20309;-74
2022/02/03 07:31:17;;;;;;;6.65;2.58;;;4.80;85.70;;;;;;5039402;28;20163;-72
2022/02/03 07:33:44;;;;;;;8.38;3.95;;;4.70;85.70;;;;;;5037445;28;20045;-74
2022/02/03 07:36:11;;;;;;;8.52;2.50;;;4.70;85.70;;;;;;5036618;28;20061;-75
2022/02/03 07:38:39;;;;;;;8.23;2.60;;;4.70;85.70;;;;;;5032561;28;20082;-74
2022/02/03 07:41:08;;;;;;;6.65;3.92;;;4.80;85.70;;;;;;5030260;28;20096;-73
2022/02/03 07:43:35;;;;;;;5.60;2.47;;;4.80;85.70;;;;;;5036976;28;20498;-75
2022/02/03 07:46:02;;;;;;;9.30;2.60;;;4.80;85.80;;;;;;5040176;28;20406;-76
2022/02/03 07:48:29;;;;;;;7.78;2.97;;;4.80;85.80;;;;;;5041791;28;20053;-75
2022/02/03 07:50:56;;;;;;;7.65;3.17;;;4.80;85.80;;;;;;5043400;28;20481;-76
2022/02/03 07:53:23;;;;;;;7.05;2.55;;;4.80;85.90;;;;;;5046050;28;20153;-76
2022/02/03 07:55:50;;;;;;;9.90;3.67;;;4.80;85.90;;;;;;5048747;28;20055;-73
2022/02/03 07:58:18;;;;;;;6.40;2.45;;;4.80;85.90;;;;;;5048026;28;20053;-76
2022/02/03 08:00:45;;;;;;;7.22;3.15;;;4.90;85.90;;;;;;5043858;28;21018;-74
2022/02/03 08:03:14;;;;;;;9.30;2.80;;;4.90;85.80;;;;;;5050896;28;20048;-73
2022/02/03 08:05:44;;;;;;;8.65;3.33;;;4.90;85.80;;;;;;5041893;28;20538;-75
2022/02/03 08:08:19;;;;;;;5.70;3.03;;;5.00;85.90;;;;;;5042342;28;20049;-73
2022/02/03 08:10:49;;;;;;;7.25;3.55;;;4.90;85.90;;;;;;5045332;28;20052;-73
2022/02/03 08:13:22;;;;;;;8.07;3.35;;;5.00;85.90;;;;;;5024399;28;20064;-70
2022/02/03 08:16:15;;;;;;;4.79;1.63;;;5.00;85.90;;;;;;2294160;28;10150801;-72
2022/02/03 08:18:46;;;;;;;10.52;3.20;;;5.10;85.80;;;;;;3650491;28;10001472;-74
2022/02/03 08:21:15;;;;;;;8.90;3.10;;;5.10;85.80;;;;;;5040619;28;20049;-71
2022/02/03 08:24:01;;;;;;;8.90;3.10;;;5.10;85.90;;;;;;5040431;28;20074;-73
2022/02/03 08:26:47;;;;;;;10.30;3.22;;;5.10;86.00;;;;;;5038687;28;20055;-73
2022/02/03 08:29:32;;;;;;;11.05;3.72;;;5.20;86.10;;;;;;5037574;28;20527;-74
2022/02/03 08:32:07;;;;;;;7.82;2.47;;;5.20;86.10;;;;;;5018470;28;20503;-75
2022/02/03 08:34:43;;;;;;;7.53;2.75;;;5.20;86.10;;;;;;5035022;28;20501;-75
2022/02/03 08:37:10;;;;;;;8.18;3.08;;;5.20;86.10;;;;;;5036206;28;20053;-71
2022/02/03 08:39:50;;;;;;;10.23;3.33;;;5.20;86.00;;;;;;5034791;28;20605;-73
2022/02/03 08:42:17;;;;;;;5.93;2.85;;;5.20;86.20;;;;;;5038786;28;20174;-72
2022/02/03 08:44:45;;;;;;;7.25;3.38;;;5.20;86.20;;;;;;5042196;28;20136;-74
2022/02/03 08:47:12;;;;;;;6.80;3.35;;;5.20;86.30;;;;;;5039915;28;20052;-72
2022/02/03 08:49:44;;;;;;;10.68;3.35;;;5.20;86.40;;;;;;5041380;28;20425;-73
2022/02/03 08:52:17;;;;;;;8.25;3.70;;;5.20;86.40;;;;;;5039985;28;20567;-71
2022/02/03 08:54:55;;;;;;;5.70;3.28;;;5.20;86.60;;;;;;5041878;28;20053;-71
2022/02/03 08:57:34;;;;;;;7.40;3.50;;;5.30;86.40;;;;;;5034660;28;20274;-72
2022/02/03 09:00:29;;;;;;;8.73;2.97;;;5.30;86.70;;;;;;5034617;28;20072;-72
2022/02/03 09:36:39;;;;;;;5.55;2.80;;;5.60;87.00;;;;;;5036515;28;20044;-70
2022/02/03 09:39:06;;;;;;;11.85;3.55;;;5.60;87.10;;;;;;5034975;28;20064;-69
2022/02/03 09:44:54;;;;;;;8.82;3.53;;;5.70;87.00;;;;;;5035086;28;20062;-69
2022/02/03 09:50:48;;;;;;;12.43;4.95;;;5.70;87.30;;;;;;5037983;28;20045;-70
2022/02/03 09:53:50;;;;;;;7.57;3.85;;;5.80;87.00;;;;;;5035071;28;20052;-69
2022/02/03 09:56:35;;;;;;;8.13;3.85;;;5.80;86.90;;;;;;5035095;28;20200;-69
2022/02/03 09:59:07;;;;;;;8.32;3.83;;;5.90;86.90;;;;;;5033435;28;20174;-68
2022/02/03 10:01:42;;;;;;;10.57;4.47;;;5.90;86.90;;;;;;5034124;28;20060;-70
2022/02/03 10:04:13;;;;;;;9.75;3.80;;;5.90;86.70;;;;;;5036778;28;20044;-69
2022/02/03 10:06:53;;;;;;;10.82;3.92;;;5.90;86.80;;;;;;5034606;28;20441;-69
2022/02/03 10:09:38;;;;;;;9.82;4.00;;;5.90;87.00;;;;;;5033592;28;20051;-69
2022/02/03 10:12:06;;;;;;;10.63;4.10;;;5.90;86.90;;;;;;5036222;28;20056;-70
2022/02/03 10:14:46;;;;;;;9.15;4.40;;;5.90;86.90;;;;;;4240356;28;10001412;-69
2022/02/03 10:17:14;;;;;;;9.40;4.00;;;6.00;87.10;;;;;;2077886;28;10002184;-68
2022/02/03 10:19:45;;;;;;;10.52;4.05;;;6.00;87.10;;;;;;5015325;28;20406;-69
2022/02/03 10:22:16;;;;;;;10.07;4.60;;;6.00;87.40;;;;;;5034245;28;20056;-70
2022/02/03 10:24:47;;;;;;;8.95;4.10;;;6.00;87.60;;;;;;5034741;28;20044;-69
2022/02/03 10:27:27;;;;;;;7.85;3.67;;;6.00;87.30;;;;;;5033441;28;20143;-70
2022/02/03 10:30:09;;;;;;;10.77;4.45;;;6.10;87.40;;;;;;5035331;28;20053;-70
2022/02/03 10:32:40;;;;;;;12.40;5.45;;;6.10;87.40;;;;;;5049709;28;20079;-69
2022/02/03 10:35:21;;;;;;;7.70;3.78;;;6.10;87.30;;;;;;5035790;28;20076;-71
2022/02/03 10:38:07;;;;;;;;;;;6.10;87.40;;;;;;5033516;28;20513;-69
2022/02/03 10:40:53;;;;;;;7.05;3.63;;;6.10;87.40;;;;;;5032572;28;19928;-69
2022/02/03 10:49:13;;;;;;;10.75;4.93;;;6.20;87.60;;;;;;5038103;28;20799;-70
2022/02/03 10:52:32;;;;;;;10.43;4.05;;;6.20;87.90;;;;;;5031984;28;20509;-71
2022/02/03 10:55:35;;;;;;;10.13;4.20;;;6.30;87.70;;;;;;5023298;28;20179;-70
2022/02/03 11:01:18;;;;;;;8.45;4.57;;;6.40;87.60;;;;;;5032894;28;20411;-69
2022/02/03 11:04:03;;;;;;;11.90;4.80;;;6.40;87.50;;;;;;5032957;28;20057;-72
2022/02/03 11:06:38;;;;;;;9.38;4.13;;;6.40;87.70;;;;;;5035999;28;20412;-69
2022/02/03 11:09:14;;;;;;;8.27;3.50;;;6.40;87.60;;;;;;5034426;28;20041;-70
2022/02/03 11:11:50;;;;;;;12.43;4.68;;;6.40;87.60;;;;;;5034375;28;20044;-68
2022/02/03 11:14:19;;;;;;;11.43;4.32;;;6.50;87.60;;;;;;5035266;28;20045;-69
2022/02/03 11:16:46;;;;;;;10.43;4.18;;;6.50;87.60;;;;;;5034100;28;20700;-70
2022/02/03 11:19:16;;;;;;;10.95;4.30;;;6.50;87.70;;;;;;5033683;28;20052;-69
2022/02/03 11:21:48;;;;;;;9.00;4.53;;;6.50;87.80;;;;;;5034511;28;20059;-69
2022/02/03 11:24:23;;;;;;;12.43;4.35;;;6.50;87.80;;;;;;5035047;28;20135;-71
2022/02/03 11:27:11;;;;;;;11.35;4.50;;;6.50;88.00;;;;;;5035340;28;20411;-69
2022/02/03 11:32:48;;;;;;;9.80;4.13;;;6.60;88.20;;;;;;5041858;28;20051;-69
2022/02/03 11:44:58;;;;;;;9.73;5.53;;;6.70;87.60;;;;;;5028966;28;20061;-68
2022/02/03 11:50:37;;;;;;;11.27;4.15;;;6.70;87.40;;;;;;5074499;28;20094;-69
2022/02/03 11:59:46;;;;;;;7.40;3.67;;;6.70;87.40;;;;;;5081766;28;20063;-69
2022/02/03 12:02:34;;;;;;;7.90;3.75;;;6.70;87.50;;;;;;5086905;28;20044;-69
2022/02/03 12:05:21;;;;;;;12.07;4.72;;;6.70;87.60;;;;;;5088087;28;20040;-70
2022/02/03 12:11:22;;;;;;;8.10;3.38;;;6.80;87.50;;;;;;5086595;27;20148;-69
2022/02/03 12:14:17;;;;;;;9.75;3.50;;;6.80;87.40;;;;;;4756082;28;10000519;-72
2022/02/03 12:19:59;;;;;;;6.82;2.72;;;6.90;87.50;;;;;;5029726;28;20610;-69
2022/02/03 12:22:39;;;;;;;5.63;2.55;;;6.90;88.30;;;;;;5033750;28;20110;-69
2022/02/03 12:25:19;;;;;;;4.80;1.35;;;7.00;88.30;;;;;;5034979;28;20199;-71
2022/02/03 12:27:58;;;;;;;3.17;1.65;;;7.10;88.40;;;;;;5033010;28;20063;-71
2022/02/03 12:30:31;;;;;;;5.18;1.70;;;7.20;88.40;;;;;;5034106;28;20088;-69
2022/02/03 12:36:57;;;;;;;3.05;1.45;;;7.20;88.30;;;;;;5033351;28;20053;-70
2022/02/03 12:38:52;;;;;;;2.85;1.13;;;7.20;87.90;;;;;;5030189;28;20584;-70
2022/02/03 12:41:22;;;;;;;1.90;1.02;;;7.20;87.80;;;;;;5033028;28;20385;-70
2022/02/03 12:43:56;;;;;;;2.40;0.82;;;7.20;88.00;;;;;;5040991;28;20306;-69
2022/02/03 12:46:25;;;;;;;3.47;1.05;;;7.30;88.20;;;;;;5031345;28;20056;-70
2022/02/03 12:48:56;;;;;;;3.05;0.75;;;7.30;88.20;;;;;;5024020;28;20336;-70
2022/02/03 12:51:24;;;;;;;5.20;1.17;;;7.30;88.20;;;;;;5019393;28;20042;-70
2022/02/03 12:53:51;;;;;;;2.17;1.10;;;7.40;88.00;;;;;;5021439;28;20041;-70
2022/02/03 12:56:22;;;;;;;2.50;0.93;;;7.40;88.20;;;;;;5018603;28;20053;-70
2022/02/03 12:58:56;;;;;;;2.83;1.25;;;7.40;88.00;;;;;;5020011;28;20043;-70
2022/02/03 13:01:31;;;;;;;4.15;1.38;;;7.50;88.00;;;;;;5017599;28;20057;-70
2022/02/03 13:04:20;;;;;;;2.75;1.00;;;7.50;87.90;;;;;;5018558;28;20480;-70
2022/02/03 13:06:59;;;;;;;2.92;0.90;;;7.50;88.00;;;;;;5019967;28;20049;-70
2022/02/03 13:09:34;;;;;;;2.42;0.80;;;7.40;87.90;;;;;;5017434;28;20152;-69
2022/02/03 13:12:15;;;;;;;1.98;0.88;;;7.40;87.50;;;;;;5019507;28;20422;-70
2022/02/03 13:14:47;;;;;;;;;;;7.40;87.40;;;;;;5020284;28;20406;-69
2022/02/03 13:17:21;;;;;;;2.67;0.77;;;7.40;87.60;;;;;;5019925;28;20473;-70
2022/02/03 13:19:54;;;;;;;2.15;0.93;;;7.40;87.60;;;;;;5019239;28;20052;-71
2022/02/03 13:22:31;;;;;;;1.90;0.80;;;7.30;87.50;;;;;;5020373;28;20045;-69
2022/02/03 13:25:12;;;;;;;2.63;0.90;;;7.40;87.50;;;;;;4991514;28;20045;-69
2022/02/03 13:27:51;;;;;;;1.50;0.68;;;7.30;87.70;;;;;;5010009;28;20503;-70
2022/02/03 13:30:40;;;;;;;3.50;1.08;;;7.30;87.70;;;;;;5014685;28;20041;-69
2022/02/03 13:33:10;;;;;;;2.92;1.13;;;7.40;87.60;;;;;;5012398;28;20479;-69
2022/02/03 13:35:50;;;;;;;3.75;1.02;;;7.40;87.60;;;;;;5011315;28;20053;-69
2022/02/03 13:38:26;;;;;;;3.63;1.17;;;7.40;88.00;;;;;;4975761;28;21513;-70
2022/02/03 13:41:15;;;;;;;2.40;1.00;;;7.40;88.00;;;;;;4978809;28;20042;-69
2022/02/03 13:43:44;;;;;;;2.83;1.52;;;7.40;87.90;;;;;;4976479;28;20050;-69
2022/02/03 13:46:13;;;;;;;3.75;1.17;;;7.40;87.70;;;;;;4978273;28;20167;-69
2022/02/03 13:48:41;;;;;;;3.15;1.10;;;7.50;87.80;;;;;;4974927;28;20045;-69
2022/02/03 13:51:10;;;;;;;2.42;1.33;;;7.40;87.70;;;;;;4968825;28;20038;-68
2022/02/03 13:53:43;;;;;;;5.10;2.72;;;7.40;87.60;;;;;;4964060;28;20053;-69
2022/02/03 14:16:19;;;;;;;3.27;1.40;;;7.50;87.60;;;;;;1143923;28;10022948;-70
2022/02/03 14:19:02;;;;;;;2.53;1.23;;;7.50;87.50;;;;;;4637998;28;10001609;-70
2022/02/03 14:21:37;;;;;;;4.57;1.40;;;7.50;87.60;;;;;;4980774;28;20050;-70
2022/02/03 14:26:57;;;;;;;1.75;0.95;;;7.40;87.40;;;;;;4981294;28;20038;-70
2022/02/03 14:29:27;;;;;;;2.38;1.05;;;7.50;87.40;;;;;;4982630;28;20042;-70
2022/02/03 14:32:00;;;;;;;2.70;1.27;;;7.50;87.60;;;;;;4982479;28;20477;-68
2022/02/03 14:34:31;;;;;;;2.47;1.00;;;7.50;87.60;;;;;;4984850;28;20046;-69
2022/02/03 14:37:05;;;;;;;3.50;1.13;;;7.50;87.50;;;;;;4999373;28;20517;-69
2022/02/03 14:39:56;;;;;;;2.05;0.88;;;7.40;87.30;;;;;;5019419;28;20045;-68
2022/02/03 14:42:23;;;;;;;1.38;0.70;;;7.50;87.30;;;;;;5018511;28;20051;-69
2022/02/03 14:44:51;;;;;;;2.85;1.00;;;7.40;87.40;;;;;;5017966;28;20774;-70
2022/02/03 14:47:18;;;;;;;2.50;1.02;;;7.50;87.30;;;;;;5017953;28;20055;-68
2022/02/03 14:49:45;;;;;;;2.22;0.80;;;7.50;87.30;;;;;;5019065;28;20445;-70
2022/02/03 14:52:25;;;;;;;2.92;1.15;;;7.50;87.30;;;;;;5016377;28;20776;-69
2022/02/03 15:00:23;;;;;;;1.92;0.95;;;7.60;87.40;;;;;;5014105;28;20446;-71
2022/02/03 15:02:50;;;;;;;3.50;0.85;;;7.50;87.20;;;;;;5019285;28;20049;-70
2022/02/03 15:05:24;;;;;;;2.47;1.20;;;7.60;87.20;;;;;;5018206;28;20047;-70
2022/02/03 15:07:57;;;;;;;1.73;1.02;;;7.60;87.40;;;;;;5018053;28;20529;-70
2022/02/03 15:10:43;;;;;;;2.00;0.98;;;7.60;87.10;;;;;;5020325;28;20061;-68
2022/02/03 15:13:16;;;;;;;1.80;0.93;;;7.60;87.20;;;;;;5020577;28;20176;-70
2022/02/03 15:15:43;;;;;;;1.88;0.63;;;7.60;87.20;;;;;;5019357;28;20046;-69
2022/02/03 15:18:12;;;;;;;1.80;1.10;;;7.60;87.20;;;;;;5017882;28;20064;-70
2022/02/03 15:20:39;;;;;;;3.50;1.20;;;7.60;87.20;;;;;;5035596;28;20045;-69
2022/02/03 15:23:08;;;;;;;2.08;1.00;;;7.60;87.20;;;;;;5016699;28;20069;-70
2022/02/03 15:25:35;;;;;;;2.13;0.93;;;7.60;87.30;;;;;;5016715;28;20156;-71
2022/02/03 15:28:02;;;;;;;3.38;1.23;;;7.60;87.30;;;;;;5016452;28;20056;-70
2022/02/03 15:30:29;;;;;;;2.83;0.93;;;7.60;87.10;;;;;;5016552;28;22041;-68
2022/02/03 15:32:56;;;;;;;2.30;1.15;;;7.60;87.00;;;;;;5016082;28;20205;-69
2022/02/03 15:35:29;;;;;;;2.53;1.17;;;7.60;87.10;;;;;;5015991;28;20053;-70
2022/02/03 15:37:56;;;;;;;2.00;0.90;;;7.60;87.00;;;;;;5014452;28;20064;-69
2022/02/03 15:40:27;;;;;;;1.45;0.70;;;7.60;87.00;;;;;;5014272;28;20565;-72
2022/02/03 15:43:04;;;;;;;2.38;1.10;;;7.60;87.00;;;;;;5016670;28;21124;-70
2022/02/03 15:45:36;;;;;;;2.25;0.73;;;7.60;87.20;;;;;;5013951;28;20115;-71
2022/02/03 15:48:10;;;;;;;1.77;0.85;;;7.60;87.10;;;;;;5015558;28;20092;-70
2022/02/03 16:13:10;;;;;;;3.25;1.17;;;7.60;87.00;;;;;;5016236;28;20130;-69
2022/02/03 16:18:34;;;;;;;3.53;1.30;;;7.60;87.10;;;;;;3632278;28;10001469;-70
2022/02/03 16:21:11;;;;;;;5.95;1.75;;;7.60;86.90;;;;;;5015468;28;20053;-69
2022/02/03 16:27:02;;;;;;;1.58;0.93;;;7.60;86.90;;;;;;5020270;28;20046;-71
2022/02/03 16:41:05;;;;;;;64.28;30.27;;;7.60;86.90;;;;;;5020430;28;20053;-68
2022/02/03 16:52:14;;;;;;;24.75;12.13;;;7.60;86.80;;;;;;4995159;28;20054;-69
2022/02/03 16:54:41;;;;;;;22.48;11.77;;;7.60;86.80;;;;;;5019219;28;20047;-68
2022/02/03 16:57:14;;;;;;;17.15;8.63;;;7.60;86.80;;;;;;5019884;28;20490;-69
2022/02/03 16:59:50;;;;;;;15.95;7.70;;;7.60;86.80;;;;;;5033829;28;20167;-68
2022/02/03 17:02:18;;;;;;;16.02;7.95;;;7.60;86.80;;;;;;5011021;28;20503;-70
2022/02/03 17:04:45;;;;;;;12.18;5.82;;;7.60;86.80;;;;;;5018925;28;20098;-69
2022/02/03 17:07:13;;;;;;;9.65;4.38;;;7.60;86.80;;;;;;5017902;28;20387;-70
2022/02/03 17:09:40;;;;;;;10.63;3.80;;;7.60;86.80;;;;;;5017180;28;20170;-70
2022/02/03 17:12:08;;;;;;;8.68;3.50;;;7.60;86.80;;;;;;5018958;28;20041;-69
2022/02/03 17:14:35;;;;;;;6.90;3.72;;;7.60;86.80;;;;;;5018798;28;20075;-70
2022/02/03 17:17:02;;;;;;;7.95;3.67;;;7.60;86.80;;;;;;5017805;28;20912;-68
2022/02/03 17:19:31;;;;;;;6.78;3.25;;;7.60;86.60;;;;;;5018237;28;21507;-70
2022/02/03 17:21:58;;;;;;;10.15;2.88;;;7.70;86.50;;;;;;5018252;28;20045;-70
2022/02/03 17:24:25;;;;;;;7.18;3.42;;;7.70;86.40;;;;;;5018269;28;20076;-70
2022/02/03 17:26:58;;;;;;;7.13;3.10;;;7.70;86.40;;;;;;5018255;28;20156;-70
2022/02/03 17:29:35;;;;;;;6.80;3.13;;;7.60;86.40;;;;;;5018224;28;20053;-70
2022/02/03 17:32:10;;;;;;;4.55;2.95;;;7.60;86.40;;;;;;5018377;28;20057;-70
2022/02/03 18:10:52;;;;;;;3.83;1.88;;;7.50;83.70;;;;;;4991499;28;20058;-71
2022/02/03 18:30:53;;;;;;;9.10;2.85;;;7.40;83.70;;;;;;5080364;28;20484;-68
2022/02/03 18:33:53;;;;;;;8.73;2.72;;;7.40;83.70;;;;;;5079176;28;20786;-70
2022/02/03 18:36:43;;;;;;;7.70;3.30;;;7.40;83.70;;;;;;5067992;28;20532;-69
2022/02/03 18:53:06;;;;;;;6.28;2.95;;;7.40;83.50;;;;;;5065248;28;20066;-70
2022/02/03 18:55:49;;;;;;;5.40;2.13;;;7.40;83.40;;;;;;5079212;28;20047;-70
2022/02/03 18:58:29;;;;;;;5.68;2.13;;;7.30;83.40;;;;;;5077763;28;20040;-70
2022/02/03 19:23:46;;;;;;;14.27;7.35;;;7.30;83.50;;;;;;5097577;28;20052;-69
2022/02/03 20:05:05;;;;;;;7.70;3.75;;;7.20;83.50;;;;;;5036150;28;20204;-70
2022/02/03 20:07:43;;;;;;;11.98;5.05;;;7.30;83.50;;;;;;5076441;28;20109;-70
2022/02/03 20:10:17;;;;;;;9.88;4.85;;;7.20;83.50;;;;;;5077511;28;20040;-70
2022/02/03 20:12:44;;;;;;;8.68;5.28;;;7.20;83.50;;;;;;5074479;28;20102;-69
2022/02/03 20:15:25;;;;;;;11.55;3.25;;;7.20;83.50;;;;;;1775146;28;10023454;-71
2022/02/03 20:17:54;;;;;;;6.68;3.38;;;7.30;83.50;;;;;;3987299;28;10001100;-69
2022/02/03 20:20:22;;;;;;;5.78;2.63;;;7.20;83.50;;;;;;5031062;28;20088;-70
2022/02/03 20:22:50;;;;;;;4.88;2.53;;;7.20;83.50;;;;;;5016002;28;20075;-71
2022/02/03 20:25:17;;;;;;;4.65;2.00;;;7.20;83.50;;;;;;5032817;28;20041;-68
2022/02/03 20:27:44;;;;;;;4.53;2.25;;;7.30;83.60;;;;;;5026748;28;20114;-69
2022/02/03 20:30:12;;;;;;;4.97;2.33;;;7.20;83.50;;;;;;5026939;28;20052;-69
2022/02/03 20:32:40;;;;;;;7.47;3.03;;;7.20;83.50;;;;;;5032514;28;21057;-69
2022/02/03 20:35:09;;;;;;;8.38;2.85;;;7.30;83.60;;;;;;5032463;28;20041;-70
2022/02/03 20:37:37;;;;;;;4.45;2.53;;;7.20;83.60;;;;;;5032041;28;20049;-68
2022/02/03 20:40:04;;;;;;;5.50;2.20;;;7.30;83.60;;;;;;5032288;28;20059;-69
2022/02/03 20:42:31;;;;;;;5.25;2.58;;;7.30;83.70;;;;;;5032727;28;20049;-69
2022/02/03 20:44:58;;;;;;;3.70;1.70;;;7.30;83.60;;;;;;5031410;28;20049;-67
2022/02/03 20:47:25;;;;;;;3.30;1.52;;;7.30;83.70;;;;;;5029741;28;20115;-68
2022/02/03 20:49:52;;;;;;;4.95;2.25;;;7.30;83.70;;;;;;5032063;28;20048;-69
2022/02/03 20:52:21;;;;;;;4.15;1.80;;;7.30;83.70;;;;;;5031625;28;20372;-67
2022/02/03 20:54:48;;;;;;;3.58;1.58;;;7.30;83.70;;;;;;5032332;28;20075;-68
2022/02/03 20:57:15;;;;;;;3.13;1.60;;;7.30;83.70;;;;;;5033207;28;20053;-69
2022/02/03 21:02:40;;;;;;;4.07;1.40;;;7.30;83.70;;;;;;5019912;28;20048;-69
2022/02/03 21:05:12;;;;;;;3.78;1.42;;;7.30;83.70;;;;;;5032943;28;20084;-70
2022/02/03 21:07:41;;;;;;;4.75;1.55;;;7.30;83.70;;;;;;5029866;28;21604;-68
2022/02/03 21:10:12;;;;;;;4.53;1.77;;;7.30;83.70;;;;;;5032037;28;20046;-70
2022/02/03 21:12:39;;;;;;;3.28;1.50;;;7.30;83.70;;;;;;5033435;28;20041;-69
2022/02/03 21:15:09;;;;;;;3.33;1.67;;;7.20;83.70;;;;;;5029205;28;20047;-68
2022/02/03 21:17:36;;;;;;;3.83;1.73;;;7.30;83.70;;;;;;5026947;28;20411;-68
2022/02/03 21:20:09;;;;;;;2.38;1.63;;;7.30;83.70;;;;;;5027102;28;20550;-70
2022/02/03 21:22:37;;;;;;;3.80;1.63;;;7.30;83.70;;;;;;5025963;28;20119;-68
2022/02/03 21:25:16;;;;;;;3.78;1.67;;;7.30;83.70;;;;;;5027243;28;20052;-69
2022/02/03 21:27:44;;;;;;;3.75;1.77;;;7.20;83.70;;;;;;5029727;28;20127;-69
2022/02/03 21:30:12;;;;;;;5.18;1.90;;;7.30;83.70;;;;;;5028581;28;20267;-70
2022/02/03 21:32:41;;;;;;;4.60;1.85;;;7.20;83.70;;;;;;5032323;28;20597;-68
2022/02/03 21:35:09;;;;;;;5.68;1.92;;;7.30;83.80;;;;;;5032936;28;20044;-68
2022/02/03 21:37:37;;;;;;;3.97;2.38;;;7.30;83.80;;;;;;5016089;28;20084;-69
2022/02/03 21:40:05;;;;;;;5.32;2.22;;;7.20;83.80;;;;;;5033532;28;20133;-68